Time;durP1;ratioP1;P1;durP2;ratioP2;P2;SDS_P1;SDS_P2;PMS_P1;PMS_P2;Temp;Humidity;BMP_temperature;BMP_pressure;BME280_temperature;BME280_humidity;BME280_pressure;Samples;Min_cycle;Max_cycle;Signal;HPM_P1;HPM_P2
2023/10/08 00:01:13;;;;;;;20.02;9.13;;;21.30;99.90;;;;;;5091267;28;20034;-71
2023/10/08 00:03:41;;;;;;;13.45;8.55;;;21.40;99.90;;;;;;5091339;28;20020;-71
2023/10/08 00:06:12;;;;;;;17.75;9.52;;;21.30;99.90;;;;;;5073038;28;20020;-71
2023/10/08 00:08:38;;;;;;;14.10;9.05;;;21.40;99.90;;;;;;5091082;28;20020;-71
2023/10/08 00:11:10;;;;;;;15.65;9.50;;;21.40;99.90;;;;;;5091467;28;20475;-72
2023/10/08 00:13:39;;;;;;;15.07;9.40;;;21.30;99.90;;;;;;5072999;28;20460;-71
2023/10/08 00:16:09;;;;;;;14.65;8.95;;;21.30;99.90;;;;;;5091522;28;20089;-72
2023/10/08 00:18:37;;;;;;;15.63;9.10;;;21.20;99.90;;;;;;5091129;28;20089;-71
2023/10/08 00:21:16;;;;;;;14.65;9.68;;;21.20;99.90;;;;;;5091209;28;20436;-71
2023/10/08 00:23:49;;;;;;;14.05;8.95;;;21.20;99.90;;;;;;5090837;28;20016;-71
2023/10/08 00:26:18;;;;;;;13.95;9.40;;;21.20;99.90;;;;;;5091209;28;20385;-71
2023/10/08 00:28:47;;;;;;;14.55;8.80;;;21.20;99.90;;;;;;5090749;28;20131;-72
2023/10/08 00:31:17;;;;;;;13.48;9.13;;;21.20;99.90;;;;;;5091718;28;20111;-71
2023/10/08 00:33:44;;;;;;;13.43;8.68;;;21.20;99.90;;;;;;5072670;28;20089;-71
2023/10/08 00:36:20;;;;;;;11.73;8.65;;;21.20;99.90;;;;;;5090891;28;20102;-71
2023/10/08 00:38:59;;;;;;;13.40;9.00;;;21.20;99.90;;;;;;5090855;28;20051;-70
2023/10/08 00:41:30;;;;;;;12.80;8.27;;;21.20;99.90;;;;;;5091193;28;20020;-72
2023/10/08 00:43:59;;;;;;;13.75;8.90;;;21.20;99.90;;;;;;5091257;28;20036;-71
2023/10/08 00:46:30;;;;;;;16.45;9.15;;;21.20;99.90;;;;;;5091139;28;20126;-71
2023/10/08 00:49:10;;;;;;;17.27;8.73;;;21.20;99.90;;;;;;5074044;28;20044;-71
2023/10/08 00:51:41;;;;;;;13.13;8.45;;;21.10;99.90;;;;;;5090869;28;20048;-71
2023/10/08 00:54:10;;;;;;;14.07;8.52;;;21.10;99.90;;;;;;5091097;28;20016;-71
2023/10/08 00:56:49;;;;;;;13.07;8.50;;;21.10;99.90;;;;;;5094036;28;20024;-72
2023/10/08 00:59:16;;;;;;;12.23;8.55;;;21.10;99.90;;;;;;5094602;28;20020;-71
2023/10/08 01:01:51;;;;;;;15.13;8.73;;;21.10;99.90;;;;;;5094907;28;20035;-69
2023/10/08 01:04:22;;;;;;;12.82;8.43;;;21.00;99.90;;;;;;5094904;28;20328;-71
2023/10/08 01:06:54;;;;;;;14.30;8.38;;;21.00;99.90;;;;;;5094830;28;20035;-71
2023/10/08 01:09:30;;;;;;;14.32;9.13;;;21.00;99.90;;;;;;5094539;28;20031;-72
2023/10/08 01:12:26;;;;;;;13.55;8.40;;;21.00;99.90;;;;;;5094324;28;20097;-70
2023/10/08 01:14:53;;;;;;;18.87;9.27;;;20.90;99.90;;;;;;5087157;28;20028;-71
2023/10/08 01:17:24;;;;;;;16.15;8.90;;;20.90;99.90;;;;;;5094265;28;20020;-70
2023/10/08 01:20:00;;;;;;;12.40;8.70;;;20.80;99.90;;;;;;5094043;28;20480;-70
2023/10/08 01:22:29;;;;;;;14.43;9.07;;;20.80;99.90;;;;;;5094196;28;20038;-72
2023/10/08 01:24:56;;;;;;;13.32;9.18;;;20.80;99.90;;;;;;5075789;28;20455;-72
2023/10/08 01:27:27;;;;;;;14.45;8.88;;;20.80;99.90;;;;;;5075572;28;20020;-72
2023/10/08 01:29:53;;;;;;;16.33;9.77;;;20.80;99.90;;;;;;5094463;28;20028;-71
2023/10/08 01:32:23;;;;;;;14.32;9.15;;;20.80;99.90;;;;;;5094234;28;20031;-71
2023/10/08 01:34:49;;;;;;;12.63;8.88;;;20.80;99.90;;;;;;5094082;28;20107;-71
2023/10/08 01:37:17;;;;;;;11.95;9.10;;;20.70;99.90;;;;;;5094160;28;20188;-70
2023/10/08 01:39:49;;;;;;;13.57;9.20;;;20.70;99.90;;;;;;5094013;28;20020;-71
2023/10/08 01:42:17;;;;;;;12.75;8.93;;;20.70;99.90;;;;;;5094202;28;20432;-72
2023/10/08 01:44:47;;;;;;;13.55;9.45;;;20.70;99.90;;;;;;5093768;28;20020;-71
2023/10/08 01:47:15;;;;;;;14.20;9.23;;;20.60;99.90;;;;;;5093762;28;20090;-71
2023/10/08 01:49:43;;;;;;;13.95;9.55;;;20.60;99.90;;;;;;5093636;28;20024;-73
2023/10/08 01:52:22;;;;;;;12.27;9.10;;;20.50;99.90;;;;;;5093649;28;20353;-71
2023/10/08 01:54:49;;;;;;;12.75;9.32;;;20.50;99.90;;;;;;5093723;28;20352;-71
2023/10/08 01:57:19;;;;;;;13.80;8.82;;;20.50;99.90;;;;;;5093882;28;20495;-71
2023/10/08 01:59:45;;;;;;;10.85;8.88;;;20.40;99.90;;;;;;5075196;28;20056;-70
2023/10/08 02:02:21;;;;;;;12.55;8.98;;;20.40;99.90;;;;;;5093975;28;20020;-71
2023/10/08 02:04:47;;;;;;;12.93;8.90;;;20.40;99.90;;;;;;5093472;28;20039;-71
2023/10/08 02:07:14;;;;;;;14.93;9.30;;;20.40;99.90;;;;;;5092915;28;20024;-71
2023/10/08 02:09:40;;;;;;;;;;;20.40;99.90;;;;;;5093563;28;20528;-70
2023/10/08 02:12:06;;;;;;;16.92;9.30;;;20.20;99.90;;;;;;5093392;28;20348;-71
2023/10/08 02:14:35;;;;;;;12.70;9.23;;;20.10;99.90;;;;;;5093239;28;20031;-71
2023/10/08 02:17:06;;;;;;;13.38;9.65;;;20.00;99.90;;;;;;5093323;28;20334;-72
2023/10/08 02:19:34;;;;;;;12.68;9.40;;;20.00;99.90;;;;;;5093029;28;20392;-71
2023/10/08 02:22:00;;;;;;;14.45;9.70;;;19.90;99.90;;;;;;5093196;28;20410;-71
2023/10/08 02:24:26;;;;;;;14.35;9.75;;;19.90;99.90;;;;;;5092949;28;20095;-71
2023/10/08 02:26:54;;;;;;;13.70;9.38;;;19.90;99.90;;;;;;5092992;28;20376;-71
2023/10/08 02:29:26;;;;;;;13.60;9.48;;;19.90;99.90;;;;;;5072763;28;20116;-71
2023/10/08 02:31:55;;;;;;;14.98;9.85;;;19.90;99.90;;;;;;5073027;28;20532;-71
2023/10/08 02:34:21;;;;;;;12.88;9.85;;;20.00;99.90;;;;;;5072947;28;20051;-70
2023/10/08 02:36:47;;;;;;;14.43;9.57;;;20.00;99.90;;;;;;5072613;28;20032;-71
2023/10/08 02:39:21;;;;;;;13.85;9.73;;;19.90;99.90;;;;;;5054067;28;20075;-71
2023/10/08 02:41:49;;;;;;;15.40;10.32;;;19.90;99.90;;;;;;5072651;28;20111;-71
2023/10/08 02:44:20;;;;;;;12.68;9.95;;;19.90;99.90;;;;;;5088162;28;20020;-71
2023/10/08 02:46:48;;;;;;;15.05;10.13;;;19.80;99.90;;;;;;5072196;28;20025;-70
2023/10/08 02:49:25;;;;;;;15.50;9.57;;;19.80;99.90;;;;;;5072111;28;20415;-71
2023/10/08 02:51:53;;;;;;;16.17;10.35;;;19.80;99.90;;;;;;5072360;28;20041;-71
2023/10/08 02:54:23;;;;;;;15.10;10.10;;;19.80;99.90;;;;;;5072025;28;20460;-71
2023/10/08 02:56:58;;;;;;;16.48;10.05;;;19.80;99.90;;;;;;5071977;28;20507;-71
2023/10/08 02:59:38;;;;;;;14.73;10.27;;;19.80;99.90;;;;;;5071977;28;20102;-72
2023/10/08 03:02:13;;;;;;;14.68;10.05;;;19.80;99.90;;;;;;5071966;28;20146;-71
2023/10/08 03:04:41;;;;;;;13.88;9.85;;;19.80;99.90;;;;;;5038518;28;20078;-70
2023/10/08 03:07:20;;;;;;;16.15;10.02;;;19.80;99.90;;;;;;5071991;28;20032;-72
2023/10/08 03:09:50;;;;;;;12.95;9.55;;;19.90;99.90;;;;;;5053608;28;20484;-71
2023/10/08 03:12:18;;;;;;;19.63;10.35;;;19.90;99.90;;;;;;5071841;28;20024;-70
2023/10/08 03:15:00;;;;;;;14.43;9.90;;;20.00;99.90;;;;;;5071979;28;20025;-70
2023/10/08 03:17:37;;;;;;;16.25;10.45;;;20.00;99.90;;;;;;5072015;28;20118;-70
2023/10/08 03:22:49;;;;;;;13.55;10.07;;;20.00;99.90;;;;;;5072040;28;20498;-72
2023/10/08 03:25:16;;;;;;;12.68;9.80;;;20.00;99.90;;;;;;5071329;28;20031;-70
2023/10/08 03:27:43;;;;;;;13.38;9.68;;;20.00;99.90;;;;;;5078171;28;20020;-70
2023/10/08 03:30:15;;;;;;;14.90;9.30;;;20.00;99.90;;;;;;5073519;28;20055;-71
2023/10/08 03:32:44;;;;;;;15.65;10.15;;;20.00;99.90;;;;;;5073463;28;20085;-70
2023/10/08 03:35:11;;;;;;;13.93;9.70;;;19.90;99.90;;;;;;5091555;28;20043;-70
2023/10/08 03:37:50;;;;;;;14.52;10.00;;;19.80;99.90;;;;;;5091385;28;20075;-71
2023/10/08 03:40:25;;;;;;;15.20;9.77;;;19.80;99.90;;;;;;5073191;28;20397;-71
2023/10/08 03:42:56;;;;;;;15.18;10.25;;;19.80;99.90;;;;;;5091891;28;20375;-70
2023/10/08 03:48:10;;;;;;;13.98;10.70;;;19.80;99.90;;;;;;5091398;28;20473;-71
2023/10/08 03:50:43;;;;;;;15.80;10.10;;;19.70;99.90;;;;;;5072804;28;20043;-70
2023/10/08 03:53:12;;;;;;;14.40;10.25;;;19.70;99.90;;;;;;5091576;28;20070;-70
2023/10/08 03:55:42;;;;;;;18.67;10.07;;;19.60;99.90;;;;;;5072970;28;20119;-72
2023/10/08 03:58:27;;;;;;;15.60;9.88;;;19.70;99.90;;;;;;5091302;28;20457;-72
2023/10/08 04:01:08;;;;;;;14.40;10.38;;;19.60;99.90;;;;;;5091264;28;20036;-70
2023/10/08 04:06:28;;;;;;;15.23;10.48;;;19.70;99.90;;;;;;5091260;28;20020;-72
2023/10/08 04:11:51;;;;;;;15.18;10.65;;;19.60;99.90;;;;;;5091161;28;20063;-71
2023/10/08 04:14:20;;;;;;;15.73;10.82;;;19.60;99.90;;;;;;5072852;28;20028;-71
2023/10/08 04:16:51;;;;;;;14.98;11.15;;;19.50;99.90;;;;;;5091375;28;20162;-71
2023/10/08 04:19:26;;;;;;;17.10;10.63;;;19.50;99.90;;;;;;5091504;28;20026;-70
2023/10/08 04:21:56;;;;;;;17.95;11.07;;;19.40;99.90;;;;;;5091044;28;20038;-70
2023/10/08 04:24:34;;;;;;;16.58;10.98;;;19.40;99.90;;;;;;5090973;28;20046;-71
2023/10/08 04:27:03;;;;;;;18.67;11.98;;;19.30;99.90;;;;;;5090905;28;20375;-71
2023/10/08 04:29:36;;;;;;;16.38;11.05;;;19.30;99.90;;;;;;5072437;28;20103;-71
2023/10/08 04:32:07;;;;;;;14.57;11.27;;;19.30;99.90;;;;;;5076424;28;20031;-71
2023/10/08 04:34:35;;;;;;;14.18;10.77;;;19.30;99.90;;;;;;5095496;28;20099;-70
2023/10/08 04:37:03;;;;;;;14.75;11.57;;;19.30;99.90;;;;;;5094845;28;20120;-71
2023/10/08 04:39:33;;;;;;;16.33;11.23;;;19.30;99.90;;;;;;5094850;28;20012;-72
2023/10/08 04:42:06;;;;;;;16.88;11.35;;;19.20;99.90;;;;;;5094932;28;20101;-70
2023/10/08 04:44:33;;;;;;;16.38;10.30;;;19.20;99.90;;;;;;5076657;28;20111;-71
2023/10/08 04:47:04;;;;;;;;;;;19.30;99.90;;;;;;5095432;28;20035;-70
2023/10/08 04:49:32;;;;;;;15.90;10.88;;;19.20;99.90;;;;;;5076475;28;20289;-72
2023/10/08 04:51:59;;;;;;;12.85;10.20;;;19.20;99.90;;;;;;5095193;28;20062;-71
2023/10/08 04:54:30;;;;;;;15.85;11.27;;;19.00;99.90;;;;;;5076621;28;20047;-72
2023/10/08 04:57:05;;;;;;;15.45;11.40;;;19.00;99.90;;;;;;5094881;28;20164;-71
2023/10/08 04:59:34;;;;;;;16.92;11.43;;;19.00;99.90;;;;;;5095071;28;20418;-71
2023/10/08 05:07:27;;;;;;;17.30;11.90;;;19.00;99.90;;;;;;5094697;28;20472;-71
2023/10/08 05:12:37;;;;;;;16.35;11.82;;;19.00;99.90;;;;;;5094657;28;20063;-72
2023/10/08 05:31:36;;;;;;;18.45;11.93;;;19.10;99.90;;;;;;5094299;28;20047;-71
2023/10/08 05:36:51;;;;;;;17.73;12.02;;;19.00;99.90;;;;;;5094016;28;20050;-71
2023/10/08 05:44:39;;;;;;;16.75;10.75;;;20.30;99.90;;;;;;5094573;28;20467;-71
2023/10/08 05:47:22;;;;;;;14.73;10.15;;;20.80;99.90;;;;;;5093777;28;20103;-71
2023/10/08 05:55:25;;;;;;;12.75;9.32;;;21.80;99.90;;;;;;5093491;28;19911;-72
2023/10/08 05:58:45;;;;;;;11.48;9.13;;;22.10;99.90;;;;;;5093726;28;20028;-72
2023/10/08 06:01:26;;;;;;;12.43;8.73;;;22.40;99.90;;;;;;5091293;28;20028;-71
2023/10/08 06:04:06;;;;;;;13.65;8.88;;;22.60;99.90;;;;;;5093984;28;20024;-72
2023/10/08 06:06:37;;;;;;;13.23;8.43;;;22.80;99.90;;;;;;5093477;28;20092;-71
2023/10/08 06:11:56;;;;;;;13.40;8.35;;;23.40;99.90;;;;;;5093201;28;20083;-71
2023/10/08 06:14:42;;;;;;;10.75;8.75;;;23.70;99.90;;;;;;5093685;28;20016;-72
2023/10/08 06:17:23;;;;;;;12.52;9.05;;;23.80;99.90;;;;;;5093691;28;20032;-71
2023/10/08 06:19:52;;;;;;;11.77;8.70;;;24.60;99.90;;;;;;5094365;28;20432;-72
2023/10/08 06:22:23;;;;;;;14.30;9.05;;;25.20;99.90;;;;;;5093880;28;20099;-71
2023/10/08 06:24:49;;;;;;;13.50;9.25;;;25.20;99.90;;;;;;5093682;28;20452;-72
2023/10/08 06:27:17;;;;;;;15.57;9.55;;;25.30;99.90;;;;;;5093727;28;20024;-71
2023/10/08 06:29:44;;;;;;;13.65;9.35;;;25.00;99.90;;;;;;5094106;28;20500;-72
2023/10/08 06:32:11;;;;;;;13.98;8.93;;;24.70;99.90;;;;;;5093588;28;20032;-71
2023/10/08 06:34:40;;;;;;;11.50;9.27;;;25.10;99.90;;;;;;5093698;28;20026;-72
2023/10/08 06:37:08;;;;;;;14.20;9.13;;;26.00;99.90;;;;;;5093323;28;20087;-72
2023/10/08 06:39:47;;;;;;;11.25;8.88;;;26.80;99.90;;;;;;5093187;28;20020;-70
2023/10/08 06:42:15;;;;;;;12.65;8.70;;;26.70;99.90;;;;;;5093558;28;20028;-72
2023/10/08 06:44:46;;;;;;;12.80;8.80;;;26.60;99.90;;;;;;5093167;28;20027;-73
2023/10/08 06:47:15;;;;;;;12.90;9.02;;;27.60;99.90;;;;;;5093702;28;20032;-72
2023/10/08 06:49:43;;;;;;;15.10;9.15;;;27.80;99.90;;;;;;5093875;28;20024;-72
2023/10/08 06:52:13;;;;;;;12.20;8.43;;;27.40;99.90;;;;;;5093078;28;20063;-72
2023/10/08 06:54:39;;;;;;;12.90;9.10;;;28.00;99.90;;;;;;5092897;28;20016;-71
2023/10/08 06:57:13;;;;;;;12.45;8.07;;;28.90;99.90;;;;;;5092691;28;20052;-71
2023/10/08 06:59:42;;;;;;;12.43;8.35;;;29.00;99.90;;;;;;5092952;28;20108;-72
2023/10/08 07:02:09;;;;;;;14.25;8.10;;;28.70;99.90;;;;;;5092882;28;20028;-71
2023/10/08 07:04:35;;;;;;;15.15;7.95;;;29.00;99.90;;;;;;5074499;28;20124;-71
2023/10/08 07:07:02;;;;;;;11.98;6.90;;;29.60;99.90;;;;;;5093126;28;20060;-71
2023/10/08 07:09:29;;;;;;;9.80;7.32;;;29.20;99.90;;;;;;5092472;28;20031;-72
2023/10/08 07:11:58;;;;;;;12.10;7.78;;;29.40;99.90;;;;;;5092487;28;20079;-71
2023/10/08 07:14:29;;;;;;;10.45;7.28;;;29.40;99.90;;;;;;5092680;28;20031;-72
2023/10/08 07:17:00;;;;;;;10.95;7.35;;;29.30;99.90;;;;;;5093141;28;20106;-72
2023/10/08 07:20:09;;;;;;;11.95;7.38;;;29.50;99.90;;;;;;5092854;28;20362;-72
2023/10/08 07:22:23;;;;;;;8.38;7.40;;;29.60;99.90;;;;;;5090105;28;20028;-71
2023/10/08 07:24:51;;;;;;;11.13;7.85;;;29.50;99.90;;;;;;5092378;28;20491;-71
2023/10/08 07:27:29;;;;;;;13.55;8.10;;;29.20;99.90;;;;;;5092226;28;20067;-73
2023/10/08 07:29:56;;;;;;;11.70;7.85;;;28.60;99.90;;;;;;5092579;28;20047;-72
2023/10/08 07:32:22;;;;;;;11.98;7.60;;;28.20;99.90;;;;;;5074126;28;20055;-72
2023/10/08 07:34:48;;;;;;;11.23;8.40;;;27.70;99.90;;;;;;5092731;28;20060;-71
2023/10/08 07:37:15;;;;;;;13.32;8.63;;;27.20;99.90;;;;;;5092266;28;20044;-73
2023/10/08 07:39:54;;;;;;;11.20;8.43;;;27.10;99.90;;;;;;5092250;28;20066;-72
2023/10/08 07:42:21;;;;;;;12.00;8.40;;;27.10;99.90;;;;;;5092663;28;20020;-72
2023/10/08 07:44:54;;;;;;;12.05;8.80;;;26.80;99.90;;;;;;5092004;28;20044;-72
2023/10/08 07:47:21;;;;;;;10.45;8.13;;;26.60;99.90;;;;;;5092195;28;20209;-72
2023/10/08 07:49:47;;;;;;;10.68;8.52;;;26.70;99.90;;;;;;5091889;28;20032;-71
2023/10/08 07:52:15;;;;;;;13.70;9.10;;;26.60;99.90;;;;;;5092124;28;20028;-72
2023/10/08 07:54:41;;;;;;;11.52;8.40;;;26.50;99.90;;;;;;5091870;28;20028;-71
2023/10/08 07:57:11;;;;;;;12.10;8.93;;;26.50;99.90;;;;;;5091996;28;20036;-71
2023/10/08 07:59:42;;;;;;;14.40;8.73;;;26.20;99.90;;;;;;5092144;28;20028;-71
2023/10/08 08:02:12;;;;;;;14.65;9.20;;;26.20;99.90;;;;;;5073563;28;20043;-71
2023/10/08 08:04:50;;;;;;;12.90;9.18;;;26.00;99.90;;;;;;5091095;28;20119;-71
2023/10/08 08:07:17;;;;;;;20.65;9.65;;;25.80;99.90;;;;;;5073622;28;20039;-71
2023/10/08 08:09:59;;;;;;;14.27;8.93;;;26.10;99.90;;;;;;5091651;28;20027;-71
2023/10/08 08:12:28;;;;;;;11.55;8.30;;;26.00;99.90;;;;;;5092024;28;20028;-71
2023/10/08 08:14:54;;;;;;;15.90;8.43;;;26.20;99.90;;;;;;5091774;28;20020;-71
2023/10/08 08:17:22;;;;;;;;;;;26.70;99.90;;;;;;5092265;28;20051;-71
2023/10/08 08:19:50;;;;;;;11.07;7.53;;;26.70;99.90;;;;;;5092234;28;19908;-71
2023/10/08 08:22:23;;;;;;;11.50;8.38;;;26.50;99.90;;;;;;5092412;28;20031;-71
2023/10/08 08:25:02;;;;;;;10.85;7.68;;;26.50;99.90;;;;;;5092317;28;20020;-72
2023/10/08 08:27:38;;;;;;;14.00;8.02;;;26.90;99.90;;;;;;5092521;28;20032;-73
2023/10/08 08:30:15;;;;;;;;;;;27.00;99.90;;;;;;5092888;28;20064;-73
2023/10/08 08:32:43;;;;;;;14.38;7.10;;;27.30;99.90;;;;;;5092529;28;19904;-72
2023/10/08 08:35:10;;;;;;;10.70;8.15;;;27.00;99.90;;;;;;5092558;28;20491;-71
2023/10/08 08:37:40;;;;;;;12.32;8.10;;;25.70;99.90;;;;;;5092210;28;20070;-71
2023/10/08 08:40:09;;;;;;;10.60;8.13;;;26.00;99.90;;;;;;5092014;28;20073;-71
2023/10/08 08:42:36;;;;;;;11.32;7.70;;;26.00;99.90;;;;;;5092249;28;20043;-71
2023/10/08 08:45:09;;;;;;;14.68;7.35;;;26.40;99.90;;;;;;5092081;28;20025;-70
2023/10/08 08:47:40;;;;;;;11.57;7.68;;;26.40;99.90;;;;;;5092516;28;20472;-72
2023/10/08 08:50:10;;;;;;;11.55;7.63;;;26.10;99.90;;;;;;5091195;28;20024;-71
2023/10/08 08:52:38;;;;;;;10.07;6.97;;;26.20;99.90;;;;;;5091231;28;20032;-72
2023/10/08 08:55:14;;;;;;;10.15;7.60;;;26.70;99.90;;;;;;5091577;28;20027;-72
2023/10/08 08:57:50;;;;;;;10.35;6.97;;;26.40;99.90;;;;;;5073202;28;20051;-72
2023/10/08 09:00:18;;;;;;;11.00;6.93;;;26.10;99.90;;;;;;5091389;28;20035;-72
2023/10/08 09:02:49;;;;;;;10.27;7.00;;;26.00;99.90;;;;;;5091264;28;20028;-71
2023/10/08 09:05:25;;;;;;;9.98;6.55;;;26.50;99.90;;;;;;5091136;28;20149;-71
2023/10/08 09:08:04;;;;;;;9.40;6.28;;;26.20;99.90;;;;;;5091835;28;20024;-71
2023/10/08 09:10:51;;;;;;;8.90;6.97;;;26.20;99.90;;;;;;5091203;28;20046;-71
2023/10/08 09:13:23;;;;;;;10.85;6.38;;;26.50;99.90;;;;;;5091686;28;20357;-71
2023/10/08 09:15:51;;;;;;;9.68;6.85;;;26.70;99.90;;;;;;5091424;28;20028;-68
2023/10/08 09:18:17;;;;;;;8.85;6.60;;;26.50;99.90;;;;;;5094906;28;20024;-72
2023/10/08 09:20:43;;;;;;;;;;;26.80;99.90;;;;;;5095367;28;20539;-71
2023/10/08 09:23:13;;;;;;;;;;;27.10;99.90;;;;;;5095668;28;20014;-72
2023/10/08 09:25:41;;;;;;;9.38;6.07;;;26.40;99.90;;;;;;5094670;28;20232;-72
2023/10/08 09:28:08;;;;;;;8.20;6.32;;;26.30;99.90;;;;;;5094784;28;20232;-72
2023/10/08 09:30:39;;;;;;;10.90;6.10;;;26.30;99.90;;;;;;5094582;28;20061;-72
2023/10/08 09:33:10;;;;;;;9.77;6.25;;;26.20;99.90;;;;;;5095051;28;20356;-73
2023/10/08 09:35:36;;;;;;;11.65;6.10;;;26.30;99.90;;;;;;5076382;28;20044;-72
2023/10/08 09:38:04;;;;;;;8.02;5.97;;;26.60;99.90;;;;;;5094598;28;20044;-72
2023/10/08 09:40:30;;;;;;;8.43;5.88;;;26.60;99.90;;;;;;5094384;28;20028;-72
2023/10/08 09:42:56;;;;;;;;;;;26.70;99.90;;;;;;5094868;28;20395;-73
2023/10/08 09:45:22;;;;;;;;;;;27.10;99.90;;;;;;5076344;28;19934;-72
2023/10/08 09:47:51;;;;;;;;;;;27.40;99.90;;;;;;5094983;28;19943;-72
2023/10/08 09:50:32;;;;;;;8.68;5.80;;;27.40;99.90;;;;;;5094333;28;19916;-72
2023/10/08 09:53:16;;;;;;;11.52;6.25;;;27.50;99.90;;;;;;5076467;28;20047;-73
2023/10/08 09:55:54;;;;;;;9.35;5.78;;;27.40;99.90;;;;;;5093924;28;20050;-71
2023/10/08 09:58:22;;;;;;;11.40;6.57;;;27.50;99.90;;;;;;5094009;28;20066;-71
2023/10/08 10:00:49;;;;;;;11.07;5.90;;;27.60;99.90;;;;;;5094109;28;20027;-72
2023/10/08 10:03:18;;;;;;;8.88;5.70;;;27.60;99.90;;;;;;5094336;28;20078;-71
2023/10/08 10:05:45;;;;;;;14.50;5.55;;;27.60;99.90;;;;;;5094043;28;20031;-72
2023/10/08 10:08:11;;;;;;;11.73;6.40;;;27.60;99.90;;;;;;5075753;28;20036;-72
2023/10/08 10:10:38;;;;;;;12.40;5.68;;;27.70;99.90;;;;;;5093828;28;20066;-71
2023/10/08 10:13:10;;;;;;;9.85;5.40;;;27.70;99.90;;;;;;5093830;28;20035;-71
2023/10/08 10:15:37;;;;;;;12.20;5.60;;;27.90;99.90;;;;;;5094127;28;20525;-73
2023/10/08 10:18:29;;;;;;;14.40;5.63;;;28.20;99.90;;;;;;5094187;28;20352;-72
2023/10/08 10:21:12;;;;;;;11.05;6.00;;;28.00;99.90;;;;;;5094136;28;20428;-73
2023/10/08 10:23:50;;;;;;;8.10;5.38;;;27.90;99.90;;;;;;5094122;28;20047;-72
2023/10/08 10:26:35;;;;;;;11.27;5.72;;;27.60;99.90;;;;;;5075305;28;20107;-72
2023/10/08 10:29:19;;;;;;;9.75;6.20;;;27.50;99.90;;;;;;5092507;28;20032;-71
2023/10/08 10:31:56;;;;;;;9.82;5.88;;;27.30;99.90;;;;;;5093841;28;20078;-72
2023/10/08 10:34:30;;;;;;;11.27;6.15;;;27.50;99.90;;;;;;5075207;28;20380;-71
2023/10/08 10:37:08;;;;;;;9.30;5.80;;;27.70;99.90;;;;;;5074927;28;20357;-73
2023/10/08 10:39:39;;;;;;;15.45;5.78;;;27.90;99.90;;;;;;5093526;28;20061;-72
2023/10/08 10:42:20;;;;;;;17.38;5.78;;;28.00;99.90;;;;;;5093228;28;20028;-72
2023/10/08 10:44:50;;;;;;;13.93;6.10;;;27.90;99.90;;;;;;5093282;28;20032;-72
2023/10/08 10:52:31;;;;;;;7.60;5.13;;;27.90;99.90;;;;;;5093069;28;20402;-71
2023/10/08 10:55:31;;;;;;;13.43;5.50;;;27.70;99.90;;;;;;5093258;28;20032;-71
2023/10/08 10:57:56;;;;;;;9.90;5.43;;;27.80;99.90;;;;;;5092371;28;20396;-71
2023/10/08 11:03:03;;;;;;;17.98;5.53;;;28.10;99.90;;;;;;5092873;28;20107;-71
2023/10/08 11:05:37;;;;;;;8.05;5.20;;;28.30;99.90;;;;;;5092811;28;20028;-71
2023/10/08 11:08:06;;;;;;;9.02;5.30;;;28.40;99.90;;;;;;5074890;28;20028;-72
2023/10/08 11:10:39;;;;;;;9.30;5.50;;;28.40;99.90;;;;;;5092448;28;20547;-71
2023/10/08 11:13:15;;;;;;;9.55;5.10;;;28.20;99.90;;;;;;5092641;28;20043;-71
2023/10/08 11:15:46;;;;;;;15.23;5.40;;;28.40;99.90;;;;;;5092884;28;20024;-72
2023/10/08 11:18:15;;;;;;;9.43;5.30;;;28.50;99.90;;;;;;5092850;28;20460;-71
2023/10/08 11:20:44;;;;;;;14.38;5.10;;;28.50;99.90;;;;;;5092389;28;20062;-72
2023/10/08 11:23:41;;;;;;;8.63;4.90;;;28.40;99.90;;;;;;5092471;28;20023;-71
2023/10/08 11:26:08;;;;;;;11.23;5.28;;;28.40;99.90;;;;;;5092223;28;20038;-70
2023/10/08 11:28:42;;;;;;;8.68;5.03;;;28.30;99.90;;;;;;5092402;28;20031;-71
2023/10/08 11:31:13;;;;;;;14.77;5.22;;;28.20;99.90;;;;;;5092811;28;20036;-70
2023/10/08 11:33:41;;;;;;;7.90;4.80;;;28.10;99.90;;;;;;5074013;28;20499;-70
2023/10/08 11:36:52;;;;;;;8.05;4.55;;;28.10;99.90;;;;;;5092383;28;20024;-70
2023/10/08 11:39:21;;;;;;;11.05;4.88;;;28.20;99.90;;;;;;5086162;28;20047;-70
2023/10/08 11:42:25;;;;;;;9.93;5.50;;;28.40;99.90;;;;;;5092181;28;20031;-71
2023/10/08 11:44:52;;;;;;;10.57;5.30;;;28.40;99.90;;;;;;5073852;28;20448;-70
2023/10/08 11:47:21;;;;;;;8.25;5.22;;;28.50;99.90;;;;;;5092143;28;20028;-71
2023/10/08 11:49:50;;;;;;;8.15;4.88;;;28.50;99.90;;;;;;5092565;28;20016;-71
2023/10/08 11:52:21;;;;;;;8.27;5.20;;;28.50;99.90;;;;;;5092150;28;20038;-71
2023/10/08 11:54:48;;;;;;;10.68;4.90;;;28.80;99.90;;;;;;5091967;28;20046;-71
2023/10/08 11:57:21;;;;;;;8.23;4.95;;;28.80;99.90;;;;;;5091963;28;20609;-72
2023/10/08 11:59:48;;;;;;;8.88;5.10;;;28.80;99.90;;;;;;5092407;28;20024;-72
2023/10/08 12:02:16;;;;;;;8.93;5.13;;;29.00;99.90;;;;;;5092391;28;20107;-71
2023/10/08 12:04:45;;;;;;;7.30;4.70;;;29.00;99.90;;;;;;5092482;28;20012;-72
2023/10/08 12:07:11;;;;;;;12.23;4.60;;;28.90;99.90;;;;;;5073613;28;20428;-71
2023/10/08 12:09:40;;;;;;;10.02;5.20;;;28.90;99.90;;;;;;5091890;28;20069;-71
2023/10/08 12:12:09;;;;;;;10.80;5.20;;;28.80;99.90;;;;;;5091736;28;20126;-72
2023/10/08 12:14:38;;;;;;;9.90;4.70;;;29.10;99.90;;;;;;5092265;28;20020;-70
2023/10/08 12:17:11;;;;;;;11.98;5.07;;;29.10;99.90;;;;;;5092146;28;20027;-71
2023/10/08 12:19:40;;;;;;;10.48;4.55;;;29.20;99.90;;;;;;5092143;28;20021;-72
2023/10/08 12:22:08;;;;;;;7.30;4.30;;;29.50;99.90;;;;;;5092323;28;20027;-71
2023/10/08 12:24:35;;;;;;;9.45;4.82;;;29.50;99.90;;;;;;5073375;28;20062;-70
2023/10/08 12:27:03;;;;;;;8.90;4.85;;;29.30;99.90;;;;;;5073150;28;20302;-71
2023/10/08 12:29:32;;;;;;;10.60;4.70;;;29.20;99.90;;;;;;5091612;28;20036;-70
2023/10/08 12:31:59;;;;;;;8.45;4.03;;;29.20;99.90;;;;;;5091365;28;20117;-70
2023/10/08 12:34:29;;;;;;;8.90;4.70;;;29.30;99.90;;;;;;5092117;28;20028;-71
2023/10/08 12:36:55;;;;;;;10.65;4.70;;;29.40;99.90;;;;;;5073076;28;20031;-70
2023/10/08 12:39:25;;;;;;;;;;;29.50;99.90;;;;;;5073566;28;20394;-70
2023/10/08 12:41:53;;;;;;;9.00;4.63;;;29.30;99.90;;;;;;5091527;28;19927;-71
2023/10/08 12:44:19;;;;;;;10.57;5.40;;;29.30;99.90;;;;;;5091049;28;20028;-71
2023/10/08 12:46:48;;;;;;;8.75;4.93;;;29.20;99.90;;;;;;5091153;28;20016;-70
2023/10/08 12:49:14;;;;;;;8.57;4.75;;;28.80;99.90;;;;;;5091149;28;20062;-71
2023/10/08 12:51:41;;;;;;;12.10;5.20;;;28.90;99.90;;;;;;5092611;28;20028;-71
2023/10/08 12:54:10;;;;;;;9.93;5.05;;;28.90;99.90;;;;;;5094773;28;20066;-71
2023/10/08 12:56:45;;;;;;;10.60;4.88;;;29.20;99.90;;;;;;5110286;28;20023;-71
2023/10/08 12:59:20;;;;;;;10.48;5.47;;;29.10;99.90;;;;;;5094652;28;20050;-72
2023/10/08 13:01:51;;;;;;;8.43;4.82;;;29.10;99.90;;;;;;5094928;28;20031;-71
2023/10/08 13:04:34;;;;;;;12.38;5.30;;;28.90;99.90;;;;;;5094891;28;20024;-70
2023/10/08 13:07:02;;;;;;;10.35;5.28;;;28.70;99.90;;;;;;5094967;28;20467;-70
2023/10/08 13:09:36;;;;;;;10.38;5.15;;;28.70;99.90;;;;;;5094838;28;20465;-71
2023/10/08 13:12:03;;;;;;;12.10;5.30;;;28.60;99.90;;;;;;5094759;28;20032;-70
2023/10/08 13:14:29;;;;;;;9.15;5.35;;;28.70;99.90;;;;;;5094639;28;20031;-70
2023/10/08 13:16:55;;;;;;;10.73;5.20;;;28.60;99.90;;;;;;5076223;28;20024;-70
2023/10/08 13:19:26;;;;;;;10.52;5.25;;;28.60;99.90;;;;;;5095047;28;20043;-71
2023/10/08 13:21:55;;;;;;;8.27;5.28;;;28.50;99.90;;;;;;5095335;28;20032;-71
2023/10/08 13:24:21;;;;;;;9.88;4.70;;;28.60;99.90;;;;;;5094708;28;20020;-71
2023/10/08 13:26:47;;;;;;;11.75;4.72;;;28.90;99.90;;;;;;5095106;28;20111;-70
2023/10/08 13:29:14;;;;;;;10.75;5.38;;;28.80;99.90;;;;;;5094911;28;20043;-70
2023/10/08 13:31:41;;;;;;;10.85;4.85;;;28.70;99.90;;;;;;5094771;28;20043;-70
2023/10/08 13:34:12;;;;;;;;;;;28.60;99.90;;;;;;5095244;28;20016;-72
2023/10/08 13:36:38;;;;;;;10.93;5.13;;;28.60;99.90;;;;;;5095000;28;19926;-71
2023/10/08 13:39:17;;;;;;;;;;;28.70;99.90;;;;;;5076699;28;20079;-70
2023/10/08 13:41:47;;;;;;;8.90;4.63;;;28.90;99.90;;;;;;5094869;28;19904;-70
2023/10/08 13:44:15;;;;;;;7.15;4.70;;;28.90;99.90;;;;;;5076909;28;20484;-71
2023/10/08 13:46:48;;;;;;;13.18;5.00;;;28.70;99.90;;;;;;5094567;28;20024;-71
2023/10/08 13:49:16;;;;;;;15.07;5.00;;;28.50;99.90;;;;;;5093868;28;20020;-71
2023/10/08 13:51:44;;;;;;;9.82;4.78;;;28.60;99.90;;;;;;5093134;28;20043;-70
2023/10/08 13:54:10;;;;;;;9.20;4.53;;;28.50;99.90;;;;;;5093355;28;20024;-70
2023/10/08 13:56:37;;;;;;;8.70;4.28;;;28.70;99.90;;;;;;5093574;28;20460;-70
2023/10/08 13:59:11;;;;;;;8.45;4.35;;;28.60;99.90;;;;;;5093196;28;20043;-71
2023/10/08 14:01:40;;;;;;;9.18;4.53;;;28.60;99.90;;;;;;5093767;28;20068;-71